Time;durP1;ratioP1;P1;durP2;ratioP2;P2;SDS_P1;SDS_P2;PMS_P1;PMS_P2;Temp;Humidity;BMP_temperature;BMP_pressure;BME280_temperature;BME280_humidity;BME280_pressure;Samples;Min_cycle;Max_cycle;Signal;HPM_P1;HPM_P2
2023/05/04 00:01:36;;;;;;;11.23;6.28;;;;;;;8.36;90.37;102382.31;5091269;28;20024;-87
2023/05/04 00:04:02;;;;;;;9.20;5.45;;;;;;;8.04;92.13;102372.41;5093962;28;20028;-88
2023/05/04 00:06:28;;;;;;;11.00;6.18;;;;;;;8.26;91.33;102363.91;5091283;28;20073;-87
2023/05/04 00:08:53;;;;;;;12.60;5.72;;;;;;;8.20;91.06;102370.81;5105296;28;20042;-88
2023/05/04 00:11:19;;;;;;;10.98;5.50;;;;;;;8.41;90.15;102364.63;5091298;28;20113;-87
2023/05/04 00:13:44;;;;;;;11.13;5.85;;;;;;;8.39;90.37;102366.88;5088727;28;20019;-87
2023/05/04 00:16:12;;;;;;;13.75;6.45;;;;;;;8.26;91.07;102363.09;5105118;28;20092;-88
2023/05/04 00:18:38;;;;;;;7.93;5.25;;;;;;;8.54;89.46;102366.44;5092674;28;20568;-87
2023/05/04 00:21:03;;;;;;;9.50;5.05;;;;;;;8.38;90.16;102357.69;5075388;28;20107;-87
2023/05/04 00:23:29;;;;;;;7.60;5.50;;;;;;;8.37;90.89;102358.00;5095931;28;20027;-87
2023/05/04 00:25:54;;;;;;;11.35;6.00;;;;;;;8.54;89.27;102360.88;5094084;28;20027;-87
2023/05/04 00:28:19;;;;;;;7.05;5.10;;;;;;;8.47;89.96;102360.53;5081849;28;20067;-87
2023/05/04 00:30:45;;;;;;;11.65;6.35;;;;;;;8.35;89.75;102347.22;5086233;28;20032;-88
2023/05/04 00:33:10;;;;;;;12.43;7.18;;;;;;;7.83;93.35;102347.91;5093217;28;20038;-87
2023/05/04 00:35:36;;;;;;;6.85;5.70;;;;;;;8.12;91.91;102343.72;5089155;28;20020;-87
2023/05/04 00:38:03;;;;;;;9.77;5.50;;;;;;;8.22;90.54;102342.56;5104421;28;20096;-87
2023/05/04 00:40:29;;;;;;;10.82;5.22;;;;;;;8.30;90.25;102333.41;5103258;28;20027;-87
2023/05/04 00:42:54;;;;;;;11.90;5.40;;;;;;;8.36;89.82;102346.03;5090037;28;20027;-87
2023/05/04 00:45:20;;;;;;;8.65;5.55;;;;;;;8.38;90.18;102342.94;5095325;28;20036;-88
2023/05/04 00:47:46;;;;;;;11.68;5.93;;;;;;;8.24;90.44;102343.91;5101234;28;20050;-87
2023/05/04 00:50:11;;;;;;;11.80;5.80;;;;;;;7.93;92.49;102333.69;5091191;28;20191;-87
2023/05/04 00:52:38;;;;;;;10.65;6.13;;;;;;;7.87;92.74;102329.41;5089949;28;20027;-87
2023/05/04 00:55:04;;;;;;;10.65;4.95;;;;;;;8.14;90.72;102321.91;5073211;28;20031;-87
2023/05/04 00:57:30;;;;;;;12.02;5.97;;;;;;;8.04;91.63;102325.00;5072984;28;20023;-87
2023/05/04 00:59:55;;;;;;;11.15;6.38;;;;;;;8.10;91.83;102318.94;5083763;28;20034;-87
2023/05/04 01:02:20;;;;;;;9.38;5.07;;;;;;;8.06;91.23;102314.34;5105458;28;20024;-86
2023/05/04 01:04:47;;;;;;;10.68;5.20;;;;;;;8.08;91.54;102310.09;5089884;28;20113;-87
2023/05/04 01:07:25;;;;;;;13.40;6.55;;;;;;;8.03;91.49;102314.97;5092118;28;20134;-87
2023/05/04 01:10:12;;;;;;;12.93;6.75;;;;;;;8.03;91.37;102313.03;5078801;28;20086;-86
2023/05/04 01:12:43;;;;;;;9.90;5.93;;;;;;;8.09;90.83;102306.13;5099301;28;20023;-87
2023/05/04 01:15:10;;;;;;;12.73;5.70;;;;;;;8.07;90.82;102308.41;5098649;28;20036;-88
2023/05/04 01:17:36;;;;;;;9.77;6.13;;;;;;;8.08;91.38;102306.47;5089478;28;20030;-87
2023/05/04 01:20:02;;;;;;;8.88;6.07;;;;;;;7.93;91.79;102293.81;5100102;28;20028;-87
2023/05/04 01:22:28;;;;;;;10.48;5.40;;;;;;;7.87;92.24;102298.72;5098937;28;20626;-87
2023/05/04 01:24:54;;;;;;;11.85;6.10;;;;;;;8.02;91.47;102299.41;5086721;28;20051;-86
2023/05/04 01:27:25;;;;;;;9.88;5.63;;;;;;;8.18;90.81;102297.78;5110798;28;20016;-88
2023/05/04 01:30:01;;;;;;;6.85;4.97;;;;;;;7.79;92.61;102302.31;5080853;28;20485;-87
2023/05/04 01:32:30;;;;;;;12.05;5.47;;;;;;;8.07;90.96;102296.47;5090540;28;20016;-87
2023/05/04 01:34:56;;;;;;;10.48;5.75;;;;;;;7.95;91.69;102285.97;5100964;28;20579;-87
2023/05/04 01:37:25;;;;;;;12.05;6.63;;;;;;;7.87;92.26;102287.56;5102647;28;20051;-86
2023/05/04 01:39:51;;;;;;;10.32;5.88;;;;;;;7.97;91.60;102291.19;5073092;28;20024;-88
2023/05/04 01:42:16;;;;;;;11.95;5.93;;;;;;;7.81;92.18;102286.09;5092507;28;20469;-88
2023/05/04 01:44:41;;;;;;;11.05;7.32;;;;;;;7.62;92.95;102291.13;5112018;28;20076;-88
2023/05/04 01:47:07;;;;;;;12.63;6.38;;;;;;;7.60;93.77;102287.84;5104173;28;20027;-87
2023/05/04 01:49:32;;;;;;;12.60;6.07;;;;;;;7.80;92.86;102287.25;5112047;28;20028;-87
2023/05/04 01:51:57;;;;;;;10.73;5.68;;;;;;;7.69;92.81;102297.84;5075513;28;20477;-87
2023/05/04 01:54:23;;;;;;;10.07;6.05;;;;;;;7.82;92.69;102296.09;5096849;28;20035;-87
2023/05/04 01:56:48;;;;;;;11.68;5.75;;;;;;;7.13;96.76;102300.25;5089970;28;20107;-87
2023/05/04 01:59:14;;;;;;;12.23;7.65;;;;;;;7.22;96.82;102291.13;5095599;28;20008;-87
2023/05/04 02:01:40;;;;;;;10.52;5.95;;;;;;;7.52;94.54;102290.25;5102361;28;20030;-87
2023/05/04 02:04:06;;;;;;;9.75;5.35;;;;;;;7.81;93.29;102305.59;5109951;28;20039;-86
2023/05/04 02:06:32;;;;;;;7.80;5.80;;;;;;;7.84;92.47;102282.66;5082846;28;20042;-87
2023/05/04 02:08:57;;;;;;;8.18;5.40;;;;;;;7.86;92.49;102285.94;5078166;28;20022;-87
2023/05/04 02:11:22;;;;;;;14.93;6.90;;;;;;;7.67;93.70;102283.44;5075690;28;20039;-87
2023/05/04 02:13:48;;;;;;;17.88;7.47;;;;;;;7.16;96.01;102278.47;5090164;28;20032;-88
2023/05/04 02:16:13;;;;;;;15.80;7.57;;;;;;;7.29;96.28;102288.69;5094600;28;20034;-81
2023/05/04 02:18:38;;;;;;;10.02;5.45;;;;;;;7.34;96.13;102288.56;5074813;28;20032;-79
2023/05/04 02:21:04;;;;;;;11.88;6.07;;;;;;;7.29;96.34;102288.69;5088724;28;20128;-79
2023/05/04 02:23:29;;;;;;;11.25;6.55;;;;;;;7.50;95.00;102284.19;5091062;28;20027;-79
2023/05/04 02:25:55;;;;;;;12.60;7.18;;;;;;;7.25;96.80;102271.81;5091736;28;20063;-80
2023/05/04 02:28:20;;;;;;;10.63;6.88;;;;;;;7.42;95.90;102271.06;5091374;28;20031;-81
2023/05/04 02:30:46;;;;;;;12.98;6.05;;;;;;;7.64;94.25;102272.13;5097590;28;20028;-82
2023/05/04 02:33:11;;;;;;;12.40;8.02;;;;;;;7.52;94.73;102267.97;5080465;28;20057;-81
2023/05/04 02:35:37;;;;;;;15.50;7.13;;;;;;;7.75;93.57;102265.06;5086615;28;20032;-80
2023/05/04 02:38:02;;;;;;;13.43;5.97;;;;;;;7.62;94.19;102268.81;5107055;28;20031;-80
2023/05/04 02:40:27;;;;;;;11.13;6.53;;;;;;;7.48;94.96;102253.06;5084620;28;20047;-80
2023/05/04 02:42:53;;;;;;;11.88;7.53;;;;;;;7.19;96.80;102252.75;5075493;28;20062;-80
2023/05/04 02:45:19;;;;;;;19.67;7.85;;;;;;;7.33;96.56;102247.91;5090926;28;20069;-80
2023/05/04 02:47:44;;;;;;;9.18;6.47;;;;;;;7.33;96.39;102247.91;5077624;28;20054;-80
2023/05/04 02:50:10;;;;;;;12.38;7.60;;;;;;;7.59;94.66;102252.75;5070834;28;20035;-81
2023/05/04 02:52:35;;;;;;;31.00;7.80;;;;;;;7.59;94.38;102236.03;5089288;28;20031;-80
2023/05/04 02:55:02;;;;;;;14.73;7.78;;;;;;;7.52;94.96;102242.06;5070905;28;20052;-80
2023/05/04 02:57:27;;;;;;;11.57;6.70;;;;;;;7.52;94.75;102244.84;5071656;28;20057;-80
2023/05/04 02:59:53;;;;;;;14.20;8.07;;;;;;;7.44;95.29;102248.44;5105865;28;20430;-80
2023/05/04 03:02:18;;;;;;;11.25;6.57;;;;;;;7.55;94.36;102241.44;5095174;28;20552;-81
2023/05/04 03:04:43;;;;;;;15.10;8.27;;;;;;;7.51;94.52;102244.03;5079358;28;20546;-80
2023/05/04 03:07:09;;;;;;;10.27;5.43;;;;;;;7.62;93.99;102232.59;5075496;28;20038;-80
2023/05/04 03:09:34;;;;;;;11.30;7.55;;;;;;;7.33;95.05;102234.00;5088713;28;20115;-80
2023/05/04 03:12:01;;;;;;;14.25;7.25;;;;;;;7.34;95.41;102230.06;5090836;28;20031;-80
2023/05/04 03:14:27;;;;;;;13.50;7.22;;;;;;;7.44;94.82;102224.22;5090129;28;20016;-80
2023/05/04 03:16:52;;;;;;;13.60;6.95;;;;;;;7.53;93.86;102221.44;5085723;28;20111;-81
2023/05/04 03:19:18;;;;;;;19.63;7.90;;;;;;;7.33;95.78;102217.28;5101547;28;20019;-80
2023/05/04 03:21:47;;;;;;;15.90;8.52;;;;;;;7.36;95.58;102225.00;5087557;28;20035;-80
2023/05/04 03:24:15;;;;;;;14.45;7.75;;;;;;;7.56;94.19;102220.78;5070871;28;20497;-80
2023/05/04 03:26:41;;;;;;;11.85;6.85;;;;;;;7.63;93.47;102218.34;5070272;28;20077;-80
2023/05/04 03:29:06;;;;;;;14.63;7.78;;;;;;;7.54;93.81;102221.09;5096430;28;20032;-80
2023/05/04 03:31:31;;;;;;;14.77;8.65;;;;;;;7.45;94.64;102209.13;5070325;28;20028;-80
2023/05/04 03:33:57;;;;;;;12.63;7.03;;;;;;;7.59;93.48;102213.72;5088694;28;20158;-80
2023/05/04 03:36:22;;;;;;;14.95;7.85;;;;;;;7.59;93.63;102217.34;5088765;28;20492;-80
2023/05/04 03:38:47;;;;;;;16.20;8.85;;;;;;;7.51;93.49;102210.63;5080081;28;20024;-80
2023/05/04 03:41:13;;;;;;;12.98;7.25;;;;;;;7.60;93.18;102210.63;5099397;28;20039;-81
2023/05/04 03:43:38;;;;;;;15.38;6.95;;;;;;;7.52;94.16;102206.66;5098139;28;20019;-80
2023/05/04 03:46:04;;;;;;;11.40;6.70;;;;;;;7.32;94.93;102210.06;5094980;28;20108;-80
2023/05/04 03:48:30;;;;;;;16.10;7.50;;;;;;;7.57;93.34;102202.09;5101556;28;20027;-80
2023/05/04 03:50:55;;;;;;;12.15;7.70;;;;;;;7.27;94.79;102190.72;5094149;28;20024;-80
2023/05/04 03:53:21;;;;;;;19.20;8.43;;;;;;;7.53;93.90;102207.50;5094539;28;20161;-80
2023/05/04 03:55:46;;;;;;;12.98;7.07;;;;;;;7.48;93.59;102202.06;5101278;28;20027;-80
2023/05/04 03:58:12;;;;;;;13.38;6.85;;;;;;;7.37;94.64;102196.00;5073983;28;20024;-80
2023/05/04 04:00:37;;;;;;;14.52;7.50;;;;;;;7.57;93.61;102193.72;5090378;28;20027;-80
2023/05/04 04:03:02;;;;;;;13.32;6.72;;;;;;;7.53;92.67;102194.38;5090567;28;20051;-80
2023/05/04 04:05:28;;;;;;;13.25;6.57;;;;;;;7.37;94.48;102190.41;5073599;28;20031;-80
2023/05/04 04:07:53;;;;;;;16.58;8.60;;;;;;;7.28;95.37;102192.38;5089249;28;20039;-80
2023/05/04 04:10:18;;;;;;;19.33;7.75;;;;;;;7.39;95.26;102199.28;5093144;28;20471;-80
2023/05/04 04:12:46;;;;;;;16.38;9.05;;;;;;;7.53;93.65;102194.38;5075057;28;20020;-80
2023/05/04 04:15:12;;;;;;;14.63;7.05;;;;;;;7.20;96.17;102190.38;5079048;27;20114;-80
2023/05/04 04:17:37;;;;;;;16.63;8.05;;;;;;;7.16;96.14;102189.38;5086512;28;20107;-80
2023/05/04 04:20:03;;;;;;;14.55;7.90;;;;;;;7.24;95.64;102200.53;5091424;28;20034;-80
2023/05/04 04:22:28;;;;;;;14.85;7.80;;;;;;;7.56;93.67;102197.66;5101688;28;20027;-80
2023/05/04 04:24:53;;;;;;;15.43;8.35;;;;;;;7.38;95.08;102200.44;5099421;27;20043;-80
2023/05/04 04:27:19;;;;;;;17.67;8.43;;;;;;;7.01;97.73;102191.44;5089680;28;20024;-80
2023/05/04 04:29:44;;;;;;;14.07;6.78;;;;;;;7.22;96.08;102199.22;5096602;28;20020;-80
2023/05/04 04:32:10;;;;;;;13.52;7.47;;;;;;;7.38;94.45;102180.94;5100260;28;20397;-80
2023/05/04 04:34:35;;;;;;;16.92;8.68;;;;;;;7.35;94.66;102194.69;5086491;28;20055;-80
2023/05/04 04:37:01;;;;;;;18.27;7.15;;;;;;;7.46;94.28;102191.28;5101818;28;20204;-80
2023/05/04 04:39:27;;;;;;;12.43;7.38;;;;;;;7.63;92.58;102184.91;5083445;28;20024;-80
2023/05/04 04:41:52;;;;;;;14.15;7.43;;;;;;;7.62;93.42;102182.44;5094740;28;20031;-80
2023/05/04 04:44:18;;;;;;;14.45;6.47;;;;;;;7.09;97.14;102184.28;5089612;28;20026;-80
2023/05/04 04:46:45;;;;;;;11.63;7.88;;;;;;;7.26;95.41;102172.38;5093149;28;20023;-80
2023/05/04 04:49:11;;;;;;;17.40;8.25;;;;;;;7.16;96.82;102184.63;5086698;28;20064;-80
2023/05/04 04:51:37;;;;;;;15.18;8.13;;;;;;;7.39;95.50;102176.97;5095936;28;20020;-80
2023/05/04 04:54:03;;;;;;;13.77;8.63;;;;;;;7.43;95.33;102177.97;5098436;28;20038;-80
2023/05/04 04:56:28;;;;;;;11.50;7.65;;;;;;;7.50;95.64;102178.31;5107385;28;20012;-80
2023/05/04 04:58:54;;;;;;;15.77;7.28;;;;;;;7.37;96.28;102181.25;5085685;28;20016;-80
2023/05/04 05:01:19;;;;;;;13.98;7.45;;;;;;;7.38;96.99;102178.16;5110928;28;20544;-80
2023/05/04 05:03:44;;;;;;;20.90;8.48;;;;;;;7.45;95.37;102170.13;5101528;28;20048;-81
2023/05/04 05:06:11;;;;;;;14.00;7.63;;;;;;;7.48;96.03;102179.78;5090930;28;20122;-79
2023/05/04 05:08:36;;;;;;;15.77;7.45;;;;;;;7.53;94.66;102177.66;5108447;27;20026;-80
2023/05/04 05:11:02;;;;;;;15.18;7.78;;;;;;;7.64;94.01;102185.72;5092664;28;20024;-80
2023/05/04 05:13:29;;;;;;;16.02;8.90;;;;;;;7.51;95.31;102179.97;5092747;28;20119;-80
2023/05/04 05:15:54;;;;;;;15.60;8.38;;;;;;;7.42;97.69;102178.28;5104768;28;20043;-80
2023/05/04 05:18:20;;;;;;;14.95;8.43;;;;;;;7.24;97.76;102169.09;5091690;28;20027;-81
2023/05/04 05:20:46;;;;;;;12.93;6.93;;;;;;;7.19;98.01;102149.72;5085349;28;20046;-80
2023/05/04 05:23:11;;;;;;;11.75;8.65;;;;;;;7.35;97.68;102170.41;5087199;28;20027;-80
2023/05/04 05:25:37;;;;;;;17.10;8.27;;;;;;;7.30;99.32;102171.41;5088661;28;20032;-80
2023/05/04 05:28:03;;;;;;;13.80;8.48;;;;;;;7.32;99.32;102171.09;5099268;28;20495;-80
2023/05/04 05:30:28;;;;;;;13.07;7.55;;;;;;;7.52;96.70;102156.50;5084903;28;20031;-81
2023/05/04 05:32:54;;;;;;;18.10;8.50;;;;;;;7.50;99.65;102172.72;5090948;28;20039;-81
2023/05/04 05:35:19;;;;;;;14.90;8.73;;;;;;;7.62;96.80;102168.50;5095737;28;20542;-80
2023/05/04 05:37:46;;;;;;;15.18;8.07;;;;;;;7.71;97.23;102156.19;5098642;28;20057;-80
2023/05/04 05:40:12;;;;;;;18.15;8.95;;;;;;;7.56;99.59;102158.66;5090160;28;20062;-80
2023/05/04 05:42:38;;;;;;;14.90;7.28;;;;;;;7.61;97.43;102178.00;5087514;27;20016;-81
2023/05/04 05:45:04;;;;;;;14.75;8.25;;;;;;;7.34;100.00;102163.22;5103696;27;20442;-80
2023/05/04 05:47:30;;;;;;;18.15;8.82;;;;;;;7.37;99.65;102168.13;5080431;28;20396;-80
2023/05/04 05:49:55;;;;;;;16.90;9.18;;;;;;;7.73;97.46;102164.25;5083362;28;20032;-80
2023/05/04 05:52:20;;;;;;;16.77;8.57;;;;;;;7.73;97.53;102170.63;5082139;28;20084;-80
2023/05/04 05:54:46;;;;;;;14.25;9.10;;;;;;;7.79;98.64;102162.94;5092237;28;20460;-80
2023/05/04 05:57:11;;;;;;;24.98;9.20;;;;;;;7.81;99.29;102174.59;5082896;28;20080;-80
2023/05/04 05:59:37;;;;;;;16.70;9.80;;;;;;;7.74;98.42;102172.28;5094297;28;20008;-80
2023/05/04 06:02:02;;;;;;;18.40;8.45;;;;;;;7.89;96.37;102175.75;5079985;28;20020;-80
2023/05/04 06:04:27;;;;;;;21.80;10.10;;;;;;;7.64;97.07;102169.00;5090047;28;20026;-80
2023/05/04 06:06:53;;;;;;;14.85;9.10;;;;;;;7.81;97.00;102171.78;5109024;28;20114;-80
2023/05/04 06:09:18;;;;;;;20.35;8.65;;;;;;;7.76;96.52;102163.59;5087994;28;20106;-80
2023/05/04 06:11:43;;;;;;;15.52;8.77;;;;;;;7.77;97.98;102158.84;5106156;28;20024;-80
2023/05/04 06:14:09;;;;;;;15.48;9.98;;;;;;;7.76;97.50;102160.81;5091907;28;20034;-81
2023/05/04 06:16:34;;;;;;;18.05;8.90;;;;;;;7.87;96.71;102156.53;5092365;28;20126;-80
2023/05/04 06:18:59;;;;;;;18.05;9.38;;;;;;;8.06;96.74;102161.78;5104551;28;20034;-80
2023/05/04 06:21:25;;;;;;;25.08;9.80;;;;;;;8.18;96.46;102157.50;5105364;28;20500;-80
2023/05/04 06:23:50;;;;;;;20.50;10.68;;;;;;;8.09;95.77;102160.31;5091060;28;20031;-80
2023/05/04 06:26:16;;;;;;;17.17;9.80;;;;;;;8.22;95.41;102152.91;5091506;28;20058;-80
2023/05/04 06:28:41;;;;;;;19.92;10.18;;;;;;;8.19;96.69;102153.56;5092150;28;20408;-80
2023/05/04 06:31:07;;;;;;;20.92;9.20;;;;;;;8.25;96.07;102153.06;5090270;28;20492;-80
2023/05/04 06:33:32;;;;;;;18.65;8.85;;;;;;;8.23;95.43;102148.97;5092125;28;20053;-80
2023/05/04 06:35:57;;;;;;;23.23;9.80;;;;;;;8.24;97.43;102139.44;5109990;28;20035;-80
2023/05/04 06:38:23;;;;;;;16.83;8.57;;;;;;;8.34;96.81;102136.31;5091522;28;20099;-80
2023/05/04 06:40:48;;;;;;;16.80;9.55;;;;;;;8.32;97.66;102133.84;5087303;28;20026;-80
2023/05/04 06:43:14;;;;;;;27.35;9.80;;;;;;;8.45;97.20;102140.41;5096522;28;20031;-80
2023/05/04 06:45:39;;;;;;;17.75;8.88;;;;;;;8.59;95.28;102123.47;5104626;28;20062;-80
2023/05/04 06:48:05;;;;;;;19.20;9.52;;;;;;;8.64;96.87;102126.06;5088049;28;20074;-80
2023/05/04 06:50:32;;;;;;;21.13;10.07;;;;;;;8.68;97.69;102120.63;5091809;28;20084;-80
2023/05/04 06:53:15;;;;;;;18.92;10.25;;;;;;;8.74;98.16;102128.47;5092102;28;20023;-80
2023/05/04 06:55:41;;;;;;;24.02;8.98;;;;;;;8.87;96.71;102123.81;5104747;28;20148;-80
2023/05/04 06:58:06;;;;;;;17.33;10.05;;;;;;;8.84;97.57;102120.91;5107598;28;20480;-80
2023/05/04 07:00:31;;;;;;;20.00;10.55;;;;;;;8.69;96.43;102106.34;5086727;28;20028;-80
2023/05/04 07:02:57;;;;;;;23.08;10.23;;;;;;;9.01;97.75;102112.44;5102948;28;20538;-80
2023/05/04 07:05:22;;;;;;;19.50;9.38;;;;;;;8.99;96.64;102125.09;5090896;28;20032;-80
2023/05/04 07:07:49;;;;;;;19.45;9.98;;;;;;;9.03;95.15;102129.66;5109921;28;20060;-80
2023/05/04 07:10:15;;;;;;;15.05;8.52;;;;;;;9.08;93.08;102115.50;5109772;28;20015;-80
2023/05/04 07:12:42;;;;;;;16.60;8.52;;;;;;;9.14;93.04;102128.13;5085627;28;20035;-80
2023/05/04 07:15:08;;;;;;;19.95;9.35;;;;;;;9.07;93.73;102116.66;5090339;28;20035;-81
2023/05/04 07:17:36;;;;;;;16.77;10.57;;;;;;;9.10;95.27;102107.59;5107454;28;20027;-81
2023/05/04 07:20:03;;;;;;;16.58;8.40;;;;;;;9.22;93.66;102125.63;5113719;28;20468;-80
2023/05/04 07:22:29;;;;;;;14.23;9.30;;;;;;;9.25;94.18;102119.34;5106896;28;20039;-80
2023/05/04 07:24:56;;;;;;;21.98;10.10;;;;;;;9.26;93.20;102123.81;5094907;28;20035;-80
2023/05/04 07:27:21;;;;;;;16.08;9.52;;;;;;;9.23;94.00;102107.69;5087640;28;20500;-80
2023/05/04 07:29:47;;;;;;;16.65;9.98;;;;;;;9.30;93.30;102102.41;5090210;28;20065;-81
2023/05/04 07:32:12;;;;;;;14.27;9.32;;;;;;;9.52;93.15;102104.84;5102154;28;20055;-81
2023/05/04 07:34:37;;;;;;;20.98;10.20;;;;;;;9.72;92.10;102113.59;5095307;28;20055;-80
2023/05/04 07:37:04;;;;;;;18.15;9.57;;;;;;;9.73;90.23;102101.22;5094707;28;20047;-81
2023/05/04 07:39:29;;;;;;;16.33;9.48;;;;;;;9.82;91.51;102096.38;5090930;28;20031;-81
2023/05/04 07:41:54;;;;;;;19.70;9.52;;;;;;;10.01;91.79;102093.06;5094520;28;20032;-81
2023/05/04 07:44:20;;;;;;;16.02;9.32;;;;;;;10.16;89.81;102091.59;5098995;28;20027;-80
2023/05/04 07:46:46;;;;;;;18.52;9.60;;;;;;;10.10;89.91;102081.81;5088270;28;20027;-80
2023/05/04 07:49:11;;;;;;;20.15;9.75;;;;;;;10.20;89.64;102086.13;5111421;27;20043;-81
2023/05/04 07:51:37;;;;;;;14.32;9.73;;;;;;;10.27;88.53;102078.00;5094610;28;20066;-81
2023/05/04 07:54:02;;;;;;;14.15;8.88;;;;;;;10.39;87.69;102072.44;5090020;28;20051;-81
2023/05/04 07:56:27;;;;;;;22.27;9.63;;;;;;;10.44;88.10;102079.81;5112652;28;20024;-80
2023/05/04 07:58:53;;;;;;;13.00;9.02;;;;;;;10.64;87.19;102081.69;5074851;28;20085;-80
2023/05/04 08:01:18;;;;;;;16.45;9.30;;;;;;;10.90;86.06;102072.09;5102204;28;20028;-81
2023/05/04 08:03:44;;;;;;;16.52;9.75;;;;;;;10.80;86.63;102070.63;5094165;28;20024;-81
2023/05/04 08:06:09;;;;;;;17.77;10.45;;;;;;;10.97;85.96;102077.97;5104266;28;20032;-81
2023/05/04 08:08:35;;;;;;;16.88;9.88;;;;;;;11.12;85.99;102063.22;5092319;28;20506;-80
2023/05/04 08:11:00;;;;;;;22.38;10.77;;;;;;;11.21;85.97;102071.50;5106373;28;20065;-80
2023/05/04 08:13:25;;;;;;;14.75;8.90;;;;;;;11.32;83.51;102069.00;5094434;28;20469;-81
2023/05/04 08:15:51;;;;;;;20.33;10.68;;;;;;;11.31;82.73;102064.59;5107374;28;20098;-81
2023/05/04 08:18:16;;;;;;;17.23;8.77;;;;;;;11.50;82.50;102066.75;5092595;28;20164;-81
2023/05/04 08:20:42;;;;;;;14.48;8.95;;;;;;;11.47;82.06;102057.06;5094492;28;20088;-81
2023/05/04 08:23:07;;;;;;;16.02;9.15;;;;;;;11.62;81.82;102057.50;5093493;28;20038;-81
2023/05/04 08:25:33;;;;;;;20.83;9.73;;;;;;;11.54;81.71;102057.28;5107994;28;20103;-81
2023/05/04 08:27:58;;;;;;;18.27;9.70;;;;;;;11.71;82.06;102052.53;5093973;28;20039;-81
2023/05/04 08:30:24;;;;;;;15.43;9.27;;;;;;;11.98;82.69;102048.94;5087695;28;20476;-81
2023/05/04 08:32:54;;;;;;;15.52;9.73;;;;;;;11.98;81.95;102043.31;5101942;28;20362;-81
2023/05/04 08:35:24;;;;;;;15.93;10.23;;;;;;;12.19;81.86;102059.91;5097589;28;20070;-81
2023/05/04 08:37:50;;;;;;;15.50;9.23;;;;;;;12.20;82.57;102049.50;5090514;28;20047;-81
2023/05/04 08:40:15;;;;;;;19.70;9.82;;;;;;;12.42;81.40;102056.50;5092447;28;20536;-81
2023/05/04 08:42:43;;;;;;;20.10;9.77;;;;;;;12.49;79.09;102055.88;5093280;27;20031;-81
2023/05/04 08:45:09;;;;;;;17.38;9.57;;;;;;;12.64;79.52;102057.84;5097728;28;20046;-81
2023/05/04 08:47:34;;;;;;;18.52;10.10;;;;;;;12.79;79.51;102059.81;5093301;28;20100;-81
2023/05/04 08:50:00;;;;;;;22.15;10.25;;;;;;;12.65;79.91;102055.84;5109463;28;20052;-81
2023/05/04 08:52:27;;;;;;;20.25;11.05;;;;;;;12.46;81.82;102050.97;5107820;28;20023;-81
2023/05/04 08:54:54;;;;;;;18.63;10.30;;;;;;;13.15;78.25;102038.16;5091955;28;20359;-81
2023/05/04 08:57:24;;;;;;;14.32;9.45;;;;;;;12.78;79.44;102034.91;5085331;28;20496;-82
2023/05/04 08:59:54;;;;;;;17.63;10.57;;;;;;;13.23;77.84;102045.56;5096306;28;20537;-81
2023/05/04 09:02:21;;;;;;;17.02;9.77;;;;;;;13.11;77.43;102037.28;5098707;28;20513;-81
2023/05/04 09:04:51;;;;;;;16.50;8.88;;;;;;;13.25;77.32;102024.72;5080087;28;20393;-81
2023/05/04 09:07:17;;;;;;;19.70;10.25;;;;;;;13.31;78.45;102023.28;5090050;28;20496;-81
2023/05/04 09:09:43;;;;;;;14.02;8.52;;;;;;;13.53;76.27;102025.34;5093002;28;20032;-81
2023/05/04 09:12:08;;;;;;;14.45;8.82;;;;;;;13.49;76.18;102021.66;5087429;28;20481;-81
2023/05/04 09:14:35;;;;;;;16.02;10.23;;;;;;;13.43;76.95;102014.72;5083169;28;20396;-81
2023/05/04 09:17:16;;;;;;;20.65;10.45;;;;;;;13.66;74.25;102016.75;5100767;28;20381;-81
2023/05/04 09:19:43;;;;;;;16.77;10.30;;;;;;;13.79;74.42;102007.78;5090173;28;20412;-81
2023/05/04 09:22:18;;;;;;;15.48;9.15;;;;;;;13.80;75.47;102017.03;5103223;28;20472;-81
2023/05/04 09:24:44;;;;;;;18.80;9.68;;;;;;;13.78;75.49;102013.78;5101411;28;20031;-81
2023/05/04 09:27:14;;;;;;;13.90;8.95;;;;;;;13.77;74.89;102007.34;5107205;28;20023;-82
2023/05/04 09:29:41;;;;;;;16.38;10.50;;;;;;;13.73;75.35;102005.66;5107863;28;20028;-81
2023/05/04 09:32:12;;;;;;;16.88;9.80;;;;;;;13.54;79.08;102004.47;5092648;28;20019;-81
2023/05/04 09:34:49;;;;;;;20.60;10.07;;;;;;;13.96;74.55;102009.31;5092365;28;20032;-81
2023/05/04 09:37:14;;;;;;;15.00;9.25;;;;;;;14.25;74.03;102004.16;5111114;28;20525;-81
2023/05/04 09:39:59;;;;;;;21.05;11.40;;;;;;;14.62;72.98;102009.25;5091959;28;20075;-81
2023/05/04 09:42:25;;;;;;;16.65;8.98;;;;;;;14.93;71.12;102013.75;5107094;28;20030;-81
2023/05/04 09:45:02;;;;;;;16.00;9.57;;;;;;;15.11;69.30;102002.72;5093234;28;20358;-81
2023/05/04 09:47:38;;;;;;;15.43;9.85;;;;;;;15.21;70.65;102015.34;5097641;28;20027;-82
2023/05/04 09:50:11;;;;;;;13.32;8.93;;;;;;;15.50;67.10;101995.97;5077504;28;20163;-82
2023/05/04 09:52:39;;;;;;;13.40;7.97;;;;;;;15.70;67.59;101997.41;5088611;28;20019;-82
2023/05/04 09:55:06;;;;;;;16.98;9.32;;;;;;;15.68;67.21;101996.97;5100490;28;20106;-82
2023/05/04 09:57:33;;;;;;;17.10;8.93;;;;;;;15.74;67.39;101986.19;5091850;28;20050;-82
2023/05/04 09:59:59;;;;;;;15.38;9.32;;;;;;;15.94;66.78;101978.31;5092351;28;20400;-82
2023/05/04 10:02:25;;;;;;;12.77;8.70;;;;;;;15.98;64.88;101968.69;5089672;28;20020;-82
2023/05/04 10:04:51;;;;;;;17.85;9.10;;;;;;;15.90;66.68;101967.00;5091203;28;20246;-82
2023/05/04 10:07:17;;;;;;;14.02;8.02;;;;;;;16.40;64.71;101963.78;5109639;28;20358;-81
2023/05/04 10:09:43;;;;;;;13.30;8.57;;;;;;;16.41;62.82;101963.41;5102249;28;20532;-82
2023/05/04 10:12:08;;;;;;;16.73;8.52;;;;;;;16.61;62.31;101963.13;5109504;28;20035;-82
2023/05/04 10:14:34;;;;;;;13.15;8.43;;;;;;;16.21;65.00;101964.84;5091979;28;20115;-81
2023/05/04 10:17:02;;;;;;;11.75;8.25;;;;;;;16.50;64.77;101968.72;5086602;28;20531;-82
2023/05/04 10:19:40;;;;;;;9.80;7.60;;;;;;;17.03;62.95;101965.44;5091980;28;20100;-82
2023/05/04 10:22:33;;;;;;;12.43;8.30;;;;;;;17.10;61.70;101959.00;5089182;28;20035;-82
2023/05/04 10:25:29;;;;;;;9.98;8.07;;;;;;;17.28;62.83;101942.91;5087878;28;20463;-82
2023/05/04 10:28:22;;;;;;;13.60;7.97;;;;;;;17.30;58.76;101953.03;5091424;28;20027;-82
2023/05/04 10:30:55;;;;;;;10.88;6.78;;;;;;;17.55;58.80;101950.28;5085015;28;20088;-82
2023/05/04 10:33:20;;;;;;;13.38;8.77;;;;;;;17.66;57.67;101936.94;5091438;28;20543;-82
2023/05/04 10:35:53;;;;;;;11.63;7.85;;;;;;;17.64;58.99;101934.50;5091953;28;20027;-82
2023/05/04 10:38:18;;;;;;;9.77;6.40;;;;;;;17.83;57.15;101938.22;5089801;28;20036;-82
2023/05/04 10:40:47;;;;;;;10.10;6.47;;;;;;;17.98;55.66;101924.88;5091482;28;20024;-82
2023/05/04 10:43:22;;;;;;;10.90;6.47;;;;;;;17.77;57.12;101928.47;5097243;28;20135;-82
2023/05/04 10:45:48;;;;;;;12.43;7.35;;;;;;;17.62;56.52;101924.81;5085848;28;20027;-82
2023/05/04 10:48:13;;;;;;;10.35;7.32;;;;;;;17.64;56.05;101931.69;5090637;28;20403;-82
2023/05/04 10:50:49;;;;;;;12.35;6.82;;;;;;;17.95;56.01;101917.19;5090784;28;20027;-82
2023/05/04 10:53:17;;;;;;;11.07;7.10;;;;;;;18.07;56.51;101903.44;5102970;28;20115;-82
2023/05/04 10:55:47;;;;;;;9.63;7.30;;;;;;;17.97;56.73;101911.94;5091496;28;20027;-82
2023/05/04 10:58:20;;;;;;;14.25;7.95;;;;;;;18.02;56.13;101903.03;5089818;28;20034;-82
2023/05/04 11:00:46;;;;;;;;;;;;;;;18.07;59.10;101902.63;5096211;28;20019;-80
2023/05/04 11:03:12;;;;;;;12.35;7.70;;;;;;;18.05;58.86;101874.72;5094071;28;19916;-82
2023/05/04 11:05:46;;;;;;;13.13;7.30;;;;;;;18.46;55.20;101882.72;5096018;28;20041;-83
2023/05/04 11:08:19;;;;;;;11.77;7.10;;;;;;;18.73;54.14;101882.25;5093547;28;20059;-82
2023/05/04 11:10:59;;;;;;;11.85;6.55;;;;;;;19.05;53.88;101881.34;5082616;28;20022;-82
2023/05/04 11:13:25;;;;;;;12.02;7.57;;;;;;;19.02;53.19;101876.50;5083262;28;20499;-82
2023/05/04 11:15:51;;;;;;;13.25;7.30;;;;;;;18.99;53.73;101858.25;5095058;28;20223;-82
2023/05/04 11:18:31;;;;;;;10.18;6.82;;;;;;;19.18;53.94;101861.81;5084676;28;20015;-82
2023/05/04 11:20:57;;;;;;;10.02;7.30;;;;;;;19.19;53.56;101849.25;5099490;28;20080;-83